createdAt,value
2019-03-19T00:01:27.749Z,3.00
2019-03-19T00:03:59.509Z,3.00
2019-03-19T00:06:32.516Z,3.23
2019-03-19T00:09:05.862Z,3.30
2019-03-19T00:11:37.778Z,3.43
2019-03-19T00:14:09.456Z,3.50
2019-03-19T00:16:41.282Z,3.77
2019-03-19T00:19:13.080Z,4.47
2019-03-19T00:21:44.865Z,3.53
2019-03-19T00:24:16.551Z,4.13
2019-03-19T00:26:48.223Z,3.60
2019-03-19T00:29:19.989Z,3.90
2019-03-19T00:31:51.784Z,3.53
2019-03-19T00:34:23.514Z,3.30
2019-03-19T00:36:55.373Z,3.50
2019-03-19T00:39:27.050Z,3.20
2019-03-19T00:41:58.798Z,3.47
2019-03-19T00:44:30.640Z,3.50
2019-03-19T00:47:02.260Z,3.87
2019-03-19T00:49:34.035Z,3.00
2019-03-19T00:52:05.776Z,3.07
2019-03-19T00:54:37.629Z,3.27
2019-03-19T00:57:09.246Z,3.53
2019-03-19T00:59:40.908Z,4.03
2019-03-19T01:02:12.664Z,3.70
2019-03-19T01:04:44.316Z,4.00
2019-03-19T01:07:16.020Z,3.77
2019-03-19T01:09:47.692Z,3.10
2019-03-19T01:12:19.362Z,3.07
2019-03-19T01:14:51.057Z,2.87
2019-03-19T01:17:22.729Z,3.27
2019-03-19T01:19:54.456Z,3.23
2019-03-19T01:22:26.243Z,3.17
2019-03-19T01:24:57.895Z,3.23
2019-03-19T01:27:29.530Z,3.33
2019-03-19T01:30:01.197Z,3.57
2019-03-19T01:32:33.427Z,3.40
2019-03-19T01:35:05.707Z,3.30
2019-03-19T01:37:37.361Z,3.03
2019-03-19T01:40:09.240Z,3.07
2019-03-19T01:42:41.001Z,2.97
2019-03-19T01:45:13.079Z,3.13
2019-03-19T01:47:44.733Z,3.00
2019-03-19T01:50:16.399Z,3.10
2019-03-19T01:52:48.040Z,3.03
2019-03-19T01:55:19.669Z,3.27
2019-03-19T01:57:51.324Z,2.83
2019-03-19T02:00:22.986Z,3.70
2019-03-19T02:02:54.608Z,3.07
2019-03-19T02:05:26.294Z,3.10
2019-03-19T02:07:57.958Z,3.20
2019-03-19T02:10:29.744Z,3.37
2019-03-19T02:13:01.351Z,2.90
2019-03-19T02:15:33.063Z,3.27
2019-03-19T02:18:05.454Z,3.13
2019-03-19T02:20:37.408Z,3.40
2019-03-19T02:23:09.170Z,3.13
2019-03-19T02:25:40.839Z,2.67
2019-03-19T02:28:12.531Z,3.03
2019-03-19T02:30:44.280Z,3.30
2019-03-19T02:33:15.993Z,2.93
2019-03-19T02:35:47.724Z,3.03
2019-03-19T02:38:19.356Z,3.70
2019-03-19T02:40:51.022Z,3.00
2019-03-19T02:43:23.091Z,3.30
2019-03-19T02:45:54.777Z,3.20
2019-03-19T02:48:26.414Z,2.73
2019-03-19T02:50:58.056Z,2.93
2019-03-19T02:53:29.804Z,3.30
2019-03-19T02:56:01.547Z,3.00
2019-03-19T02:58:33.159Z,2.87
2019-03-19T03:01:05.012Z,2.60
2019-03-19T03:03:36.700Z,3.60
2019-03-19T03:06:08.313Z,3.00
2019-03-19T03:08:39.958Z,2.90
2019-03-19T03:11:11.592Z,3.10
2019-03-19T03:13:43.196Z,3.30
2019-03-19T03:16:14.808Z,3.07
2019-03-19T03:18:47.660Z,3.17
2019-03-19T03:21:19.275Z,2.67
2019-03-19T03:23:50.912Z,2.77
2019-03-19T03:26:22.539Z,3.13
2019-03-19T03:28:54.183Z,2.83
2019-03-19T03:31:25.858Z,3.00
2019-03-19T03:33:57.467Z,3.40
2019-03-19T03:36:29.165Z,3.00
2019-03-19T03:39:00.835Z,3.10
2019-03-19T03:41:32.485Z,3.10
2019-03-19T03:44:04.378Z,3.27
2019-03-19T03:46:37.220Z,3.60
2019-03-19T03:49:09.813Z,3.37
2019-03-19T03:51:41.516Z,3.23
2019-03-19T03:54:13.237Z,3.87
2019-03-19T03:56:44.870Z,3.50
2019-03-19T03:59:16.510Z,3.33
2019-03-19T04:01:48.154Z,3.43
2019-03-19T04:04:19.793Z,3.10
2019-03-19T04:06:51.455Z,3.50
2019-03-19T04:09:23.080Z,3.57
2019-03-19T04:11:54.743Z,3.97
2019-03-19T04:14:26.550Z,3.90
2019-03-19T04:16:58.162Z,3.37
2019-03-19T04:19:29.800Z,3.50
2019-03-19T04:22:01.655Z,3.50
2019-03-19T04:24:33.287Z,3.93
2019-03-19T04:27:15.327Z,3.23
2019-03-19T04:29:38.283Z,3.33
2019-03-19T04:32:10.054Z,3.50
2019-03-19T04:34:41.698Z,3.03
2019-03-19T04:37:13.388Z,3.37
2019-03-19T04:39:45.001Z,3.83
2019-03-19T04:42:16.632Z,3.87
2019-03-19T04:44:48.512Z,3.90
2019-03-19T04:47:20.203Z,4.20
2019-03-19T04:49:51.857Z,3.50
2019-03-19T04:52:23.497Z,3.33
2019-03-19T04:54:55.083Z,3.40
2019-03-19T04:57:27.327Z,3.40
2019-03-19T04:59:59.174Z,3.37
2019-03-19T05:02:30.773Z,4.80
2019-03-19T05:05:02.720Z,4.00
2019-03-19T05:07:34.358Z,3.83
2019-03-19T05:10:07.702Z,3.73
2019-03-19T05:12:39.364Z,3.93
2019-03-19T05:15:11.834Z,3.97
2019-03-19T05:17:43.498Z,4.47
2019-03-19T05:20:15.141Z,3.73
2019-03-19T05:22:46.777Z,3.40
2019-03-19T05:25:18.385Z,3.57
2019-03-19T05:27:50.012Z,3.50
2019-03-19T05:30:21.664Z,3.33
2019-03-19T05:32:53.352Z,5.47
2019-03-19T05:35:25.022Z,3.93
2019-03-19T05:37:56.767Z,3.80
2019-03-19T05:40:28.390Z,3.80
2019-03-19T05:43:00.052Z,3.40
2019-03-19T05:45:31.685Z,4.13
2019-03-19T05:48:03.343Z,4.20
2019-03-19T05:50:35.032Z,4.23
2019-03-19T05:53:06.715Z,5.10
2019-03-19T05:55:38.401Z,4.43
2019-03-19T05:58:10.039Z,4.17
2019-03-19T06:00:41.722Z,4.93
2019-03-19T06:03:13.543Z,4.63
2019-03-19T06:05:45.443Z,4.47
2019-03-19T06:08:17.049Z,4.13
2019-03-19T06:10:48.713Z,3.43
2019-03-19T06:13:20.379Z,4.77
2019-03-19T06:15:52.008Z,3.73
2019-03-19T06:18:34.351Z,4.47
2019-03-19T06:20:57.084Z,4.10
2019-03-19T06:23:28.813Z,5.13
2019-03-19T06:26:00.689Z,5.13
2019-03-19T06:28:32.387Z,5.20
2019-03-19T06:31:04.087Z,4.33
2019-03-19T06:33:35.799Z,5.20
2019-03-19T06:36:07.644Z,4.83
2019-03-19T06:38:39.341Z,5.07
2019-03-19T06:41:11.253Z,4.73
2019-03-19T06:43:42.950Z,4.87
2019-03-19T06:46:14.633Z,4.97
2019-03-19T06:48:46.334Z,5.40
2019-03-19T06:51:18.047Z,5.50
2019-03-19T06:53:49.747Z,6.10
2019-03-19T06:56:21.536Z,5.40
2019-03-19T06:58:53.363Z,5.90
2019-03-19T07:01:25.225Z,5.73
2019-03-19T07:03:56.956Z,7.13
2019-03-19T07:06:28.691Z,6.43
2019-03-19T07:09:00.661Z,6.75
2019-03-19T07:11:32.338Z,6.43
2019-03-19T07:14:04.146Z,6.53
2019-03-19T07:16:36.005Z,6.37
2019-03-19T07:19:10.144Z,7.07
2019-03-19T07:21:41.829Z,7.40
2019-03-19T07:24:13.486Z,8.60
2019-03-19T07:26:45.251Z,8.23
2019-03-19T07:29:19.305Z,9.07
2019-03-19T07:31:56.089Z,8.17
2019-03-19T07:34:24.492Z,9.57
2019-03-19T07:36:56.215Z,9.10
2019-03-19T07:39:27.881Z,8.57
2019-03-19T07:41:59.558Z,7.40
2019-03-19T07:44:31.262Z,9.13
2019-03-19T07:47:03.039Z,8.07
2019-03-19T07:49:34.969Z,8.13
2019-03-19T07:52:07.004Z,8.90
2019-03-19T07:54:38.864Z,8.23
2019-03-19T07:57:10.614Z,8.23
2019-03-19T07:59:42.315Z,8.03
2019-03-19T08:02:14.090Z,7.70
2019-03-19T08:04:45.850Z,6.87
2019-03-19T08:07:17.517Z,6.73
2019-03-19T08:09:49.551Z,10.65
2019-03-19T08:12:21.249Z,7.33
2019-03-19T08:14:52.978Z,6.90
2019-03-19T08:17:24.695Z,6.13
2019-03-19T08:19:57.311Z,6.13
2019-03-19T08:22:29.099Z,6.23
2019-03-19T08:25:02.051Z,6.63
2019-03-19T08:27:33.778Z,6.00
2019-03-19T08:30:06.351Z,5.90
2019-03-19T08:32:38.086Z,5.27
2019-03-19T08:35:09.924Z,5.57
2019-03-19T08:37:41.755Z,7.53
2019-03-19T08:40:14.243Z,6.30
2019-03-19T08:42:47.617Z,7.30
2019-03-19T08:45:19.326Z,5.30
2019-03-19T08:47:51.275Z,7.07
2019-03-19T08:50:23.080Z,4.30
2019-03-19T08:52:55.569Z,4.50
2019-03-19T08:55:27.483Z,3.77
2019-03-19T08:57:59.162Z,3.90
2019-03-19T09:00:30.847Z,3.97
2019-03-19T09:03:02.535Z,4.00
2019-03-19T09:05:35.371Z,4.33
2019-03-19T09:08:10.339Z,4.10
2019-03-19T09:10:40.504Z,4.67
2019-03-19T09:13:12.376Z,3.47
2019-03-19T09:15:44.066Z,4.67
2019-03-19T09:18:16.210Z,3.77
2019-03-19T09:20:47.949Z,3.23
2019-03-19T09:23:19.759Z,3.27
2019-03-19T09:25:51.477Z,2.77
2019-03-19T09:28:23.278Z,3.50
2019-03-19T09:30:54.939Z,3.30
2019-03-19T09:33:26.769Z,2.87
2019-03-19T09:35:58.427Z,2.70
2019-03-19T09:38:30.128Z,3.00
2019-03-19T09:41:01.861Z,3.07
2019-03-19T09:43:33.533Z,2.70
2019-03-19T09:46:05.285Z,2.50
2019-03-19T09:48:37.056Z,2.43
2019-03-19T09:51:08.851Z,2.63
2019-03-19T09:53:40.497Z,2.97
2019-03-19T09:56:12.159Z,2.90
2019-03-19T09:58:44.048Z,2.70
2019-03-19T10:01:15.734Z,2.63
2019-03-19T10:03:47.468Z,2.80
2019-03-19T10:06:19.178Z,3.40
2019-03-19T10:08:50.898Z,3.50
2019-03-19T10:11:22.611Z,3.30
2019-03-19T10:13:54.367Z,3.50
2019-03-19T10:16:26.173Z,4.40
2019-03-19T10:18:57.963Z,3.37
2019-03-19T10:21:29.672Z,3.83
2019-03-19T10:24:01.387Z,3.40
2019-03-19T10:26:33.091Z,3.13
2019-03-19T10:29:04.817Z,2.97
2019-03-19T10:31:36.429Z,2.80
2019-03-19T10:34:08.150Z,3.50
2019-03-19T10:36:39.836Z,2.70
2019-03-19T10:39:11.909Z,2.77
2019-03-19T10:41:43.641Z,2.80
2019-03-19T10:44:15.609Z,2.93
2019-03-19T10:46:47.266Z,2.30
2019-03-19T10:49:19.018Z,2.50
2019-03-19T10:51:50.745Z,3.13
2019-03-19T10:54:22.514Z,3.20
2019-03-19T10:56:54.526Z,3.40
2019-03-19T10:59:26.223Z,3.57
2019-03-19T11:01:57.995Z,3.87
2019-03-19T11:04:29.971Z,3.97
2019-03-19T11:07:01.849Z,3.23
2019-03-19T11:09:33.658Z,2.80
2019-03-19T11:12:05.505Z,2.80
2019-03-19T11:14:37.164Z,2.50
2019-03-19T11:17:09.134Z,3.73
2019-03-19T11:19:40.770Z,2.80
2019-03-19T11:22:12.708Z,5.40
2019-03-19T11:24:44.525Z,2.57
2019-03-19T11:27:16.367Z,2.80
2019-03-19T11:29:48.125Z,3.80
2019-03-19T11:32:19.879Z,3.50
2019-03-19T11:34:51.668Z,3.50
2019-03-19T11:37:23.314Z,3.70
2019-03-19T11:39:55.142Z,3.00
2019-03-19T11:42:26.987Z,3.00
2019-03-19T11:44:58.846Z,3.17
2019-03-19T11:47:30.531Z,3.10
2019-03-19T11:50:02.289Z,3.33
2019-03-19T11:52:34.131Z,3.77
2019-03-19T11:55:07.436Z,3.27
2019-03-19T11:57:39.169Z,3.20
2019-03-19T12:00:24.918Z,3.27
2019-03-19T12:02:56.638Z,3.23
2019-03-19T12:05:29.078Z,2.72
2019-03-19T12:08:01.376Z,3.30
2019-03-19T12:10:33.346Z,3.40
2019-03-19T12:13:05.909Z,3.22
2019-03-19T12:15:37.560Z,4.35
2019-03-19T12:18:09.287Z,3.15
2019-03-19T12:20:40.929Z,3.42
2019-03-19T12:23:13.278Z,3.15
2019-03-19T12:25:45.665Z,3.37
2019-03-19T12:28:17.411Z,3.22
2019-03-19T12:30:50.593Z,3.50
2019-03-19T12:33:23.248Z,2.98
2019-03-19T12:35:57.806Z,3.10
2019-03-19T12:38:29.078Z,2.80
2019-03-19T12:41:00.875Z,3.25
2019-03-19T12:43:33.626Z,2.95
2019-03-19T12:46:05.522Z,2.98
2019-03-19T12:48:37.730Z,3.17
2019-03-19T12:51:11.290Z,3.08
2019-03-19T12:53:43.917Z,2.90
2019-03-19T12:56:16.184Z,2.85
2019-03-19T12:58:48.545Z,4.08
2019-03-19T13:01:22.443Z,3.20
2019-03-19T13:03:55.036Z,3.00
2019-03-19T13:06:27.315Z,3.15
2019-03-19T13:08:59.564Z,3.27
2019-03-19T13:11:31.954Z,3.50
2019-03-19T13:14:04.259Z,3.35
2019-03-19T13:16:36.578Z,2.80
2019-03-19T13:19:08.351Z,2.75
2019-03-19T13:21:40.801Z,2.83
2019-03-19T13:24:13.031Z,3.05
2019-03-19T13:26:44.846Z,3.00
2019-03-19T13:29:17.111Z,2.65
2019-03-19T13:31:48.817Z,3.13
2019-03-19T13:34:22.320Z,2.93
2019-03-19T13:36:54.013Z,3.00
2019-03-19T13:39:25.776Z,3.17
2019-03-19T13:41:57.630Z,3.03
2019-03-19T13:44:29.402Z,3.03
2019-03-19T13:47:02.528Z,3.07
2019-03-19T13:49:34.280Z,3.63
2019-03-19T13:52:06.000Z,2.80
2019-03-19T13:54:37.741Z,2.93
2019-03-19T13:57:09.486Z,2.60
2019-03-19T13:59:41.216Z,3.43
2019-03-19T14:02:13.068Z,3.30
2019-03-19T14:04:44.861Z,3.03
2019-03-19T14:07:16.687Z,3.20
2019-03-19T14:09:48.590Z,3.03
2019-03-19T14:12:20.313Z,2.90
2019-03-19T14:14:52.077Z,3.50
2019-03-19T14:17:23.886Z,3.03
2019-03-19T14:19:55.607Z,2.90
2019-03-19T14:22:27.419Z,3.33
2019-03-19T14:25:00.503Z,2.70
2019-03-19T14:27:32.382Z,2.83
2019-03-19T14:30:05.201Z,2.87
2019-03-19T14:32:38.858Z,3.07
2019-03-19T14:35:10.765Z,3.23
2019-03-19T14:37:42.649Z,3.10
2019-03-19T14:40:17.002Z,3.77
2019-03-19T14:42:49.026Z,2.80
2019-03-19T14:45:21.103Z,3.30
2019-03-19T14:47:53.107Z,3.57
2019-03-19T14:50:24.862Z,3.20
2019-03-19T14:52:56.755Z,3.63
2019-03-19T14:55:28.584Z,3.77
2019-03-19T14:58:00.340Z,3.30
2019-03-19T15:00:32.085Z,3.50
2019-03-19T15:03:03.829Z,3.70
2019-03-19T15:05:35.803Z,3.20
2019-03-19T15:08:07.576Z,3.50
2019-03-19T15:10:39.518Z,3.20
2019-03-19T15:13:11.378Z,3.43
2019-03-19T15:15:43.124Z,3.43
2019-03-19T15:18:15.008Z,7.50
2019-03-19T15:20:46.853Z,4.60
2019-03-19T15:23:18.663Z,3.63
2019-03-19T15:25:50.467Z,2.90
2019-03-19T15:28:22.755Z,2.70
2019-03-19T15:30:54.738Z,2.53
2019-03-19T15:33:26.465Z,3.00
2019-03-19T15:35:58.277Z,2.70
2019-03-19T15:38:30.031Z,3.03
2019-03-19T15:41:01.713Z,2.90
2019-03-19T15:43:33.477Z,2.97
2019-03-19T15:46:05.460Z,2.87
2019-03-19T15:48:37.222Z,3.30
2019-03-19T15:51:08.922Z,2.90
2019-03-19T15:53:40.711Z,2.80
2019-03-19T15:56:12.507Z,3.10
2019-03-19T15:58:44.221Z,2.87
2019-03-19T16:01:17.058Z,2.87
2019-03-19T16:03:50.711Z,2.63
2019-03-19T16:06:22.459Z,3.40
2019-03-19T16:08:54.457Z,2.57
2019-03-19T16:11:26.228Z,3.30
2019-03-19T16:13:57.980Z,3.40
2019-03-19T16:16:29.916Z,3.57
2019-03-19T16:19:01.866Z,2.80
2019-03-19T16:21:33.696Z,2.97
2019-03-19T16:24:06.386Z,3.10
2019-03-19T16:26:38.275Z,3.00
2019-03-19T16:29:10.175Z,3.50
2019-03-19T16:31:50.678Z,2.97
2019-03-19T16:34:15.641Z,2.83
2019-03-19T16:36:48.072Z,2.70
2019-03-19T16:39:19.863Z,2.97
2019-03-19T16:41:51.626Z,3.07
2019-03-19T16:44:24.634Z,3.50
2019-03-19T16:46:56.423Z,2.93
2019-03-19T16:49:28.285Z,3.60
2019-03-19T16:52:00.258Z,3.10
2019-03-19T16:54:32.244Z,3.37
2019-03-19T16:57:04.047Z,3.43
2019-03-19T16:59:35.785Z,3.43
2019-03-19T17:02:07.907Z,3.57
2019-03-19T17:04:39.624Z,3.33
2019-03-19T17:07:11.454Z,3.43
2019-03-19T17:09:43.381Z,3.13
2019-03-19T17:12:15.100Z,3.70
2019-03-19T17:14:47.091Z,3.80
2019-03-19T17:17:18.997Z,2.93
2019-03-19T17:19:50.917Z,3.63
2019-03-19T17:22:22.988Z,3.20
2019-03-19T17:24:54.680Z,4.00
2019-03-19T17:27:26.540Z,3.03
2019-03-19T17:30:00.649Z,3.63
2019-03-19T17:32:32.544Z,3.17
2019-03-19T17:35:04.553Z,3.80
2019-03-19T17:37:36.397Z,3.93
2019-03-19T17:40:09.107Z,3.53
2019-03-19T17:42:40.818Z,3.70
2019-03-19T17:45:12.833Z,3.87
2019-03-19T17:47:44.784Z,3.43
2019-03-19T17:50:18.973Z,3.13
2019-03-19T17:52:51.712Z,4.10
2019-03-19T17:55:23.659Z,3.83
2019-03-19T17:57:55.610Z,3.30
2019-03-19T18:00:28.866Z,3.47
2019-03-19T18:03:00.789Z,2.93
2019-03-19T18:05:32.584Z,2.57
2019-03-19T18:08:04.365Z,2.67
2019-03-19T18:10:36.180Z,3.10
2019-03-19T18:13:08.058Z,3.10
2019-03-19T18:15:40.038Z,2.90
2019-03-19T18:18:11.969Z,3.20
2019-03-19T18:20:43.719Z,3.20
2019-03-19T18:23:15.533Z,3.33
2019-03-19T18:25:47.419Z,2.87
2019-03-19T18:28:19.205Z,2.60
2019-03-19T18:30:51.057Z,3.17
2019-03-19T18:33:22.964Z,3.07
2019-03-19T18:35:56.470Z,3.33
2019-03-19T18:38:28.544Z,3.40
2019-03-19T18:41:00.547Z,3.70
2019-03-19T18:43:33.159Z,3.67
2019-03-19T18:46:05.642Z,3.67
2019-03-19T18:48:37.446Z,3.87
2019-03-19T18:51:09.550Z,3.70
2019-03-19T18:53:41.520Z,4.07
2019-03-19T18:56:13.378Z,3.93
2019-03-19T18:58:45.342Z,4.17
2019-03-19T19:01:17.405Z,3.73
2019-03-19T19:03:49.311Z,4.10
2019-03-19T19:06:21.238Z,4.20
2019-03-19T19:08:53.038Z,4.30
2019-03-19T19:11:24.981Z,3.80
2019-03-19T19:13:56.878Z,4.33
2019-03-19T19:16:28.771Z,3.67
2019-03-19T19:19:00.769Z,3.97
2019-03-19T19:21:32.561Z,4.00
2019-03-19T19:24:04.533Z,3.80
2019-03-19T19:26:36.666Z,4.40
2019-03-19T19:29:08.790Z,4.70
2019-03-19T19:31:41.075Z,5.07
2019-03-19T19:34:13.110Z,5.00
2019-03-19T19:36:46.361Z,4.87
2019-03-19T19:39:18.350Z,4.10
2019-03-19T19:41:51.639Z,4.33
2019-03-19T19:44:24.015Z,3.97
2019-03-19T19:46:57.134Z,4.07
2019-03-19T19:49:29.091Z,4.17
2019-03-19T19:52:04.873Z,4.77
2019-03-19T19:54:36.879Z,4.03
2019-03-19T19:57:08.742Z,4.17
2019-03-19T19:59:40.875Z,3.90
2019-03-19T20:02:15.686Z,3.90
2019-03-19T20:04:49.738Z,4.53
2019-03-19T20:07:22.670Z,4.97
2019-03-19T20:09:54.514Z,4.07
2019-03-19T20:12:27.214Z,3.90
2019-03-19T20:14:59.298Z,4.20
2019-03-19T20:17:31.095Z,4.30
2019-03-19T20:20:03.315Z,4.10
2019-03-19T20:22:35.335Z,4.30
2019-03-19T20:25:10.334Z,4.20
2019-03-19T20:27:42.492Z,4.00
2019-03-19T20:30:17.534Z,5.23
2019-03-19T20:32:49.469Z,4.47
2019-03-19T20:35:21.425Z,4.93
2019-03-19T20:37:53.567Z,4.37
2019-03-19T20:40:25.613Z,4.83
2019-03-19T20:42:57.436Z,4.10
2019-03-19T20:45:29.353Z,4.00
2019-03-19T20:48:01.240Z,5.03
2019-03-19T20:50:33.167Z,4.93
2019-03-19T20:53:05.064Z,4.83
2019-03-19T20:55:36.907Z,4.33
2019-03-19T20:58:08.958Z,4.83
2019-03-19T21:00:40.786Z,4.23
2019-03-19T21:03:12.613Z,4.47
2019-03-19T21:05:44.395Z,4.90
2019-03-19T21:08:16.296Z,4.17
2019-03-19T21:10:48.196Z,3.83
2019-03-19T21:13:20.388Z,3.93
2019-03-19T21:15:52.554Z,3.83
2019-03-19T21:18:24.255Z,4.23
2019-03-19T21:20:56.022Z,4.27
2019-03-19T21:23:27.971Z,4.33
2019-03-19T21:25:59.860Z,4.83
2019-03-19T21:28:31.817Z,4.60
2019-03-19T21:31:03.803Z,4.47
2019-03-19T21:33:35.936Z,4.20
2019-03-19T21:36:08.037Z,4.20
2019-03-19T21:38:39.905Z,5.47
2019-03-19T21:41:11.809Z,4.07
2019-03-19T21:43:43.625Z,4.30
2019-03-19T21:46:15.467Z,4.67
2019-03-19T21:48:47.333Z,4.53
2019-03-19T21:51:19.134Z,4.50
2019-03-19T21:53:50.945Z,4.53
2019-03-19T21:56:23.866Z,4.60
2019-03-19T21:58:55.613Z,4.93
2019-03-19T22:01:27.883Z,4.70
2019-03-19T22:04:03.378Z,4.53
2019-03-19T22:06:33.118Z,4.47
2019-03-19T22:09:07.022Z,4.57
2019-03-19T22:11:38.773Z,4.93
2019-03-19T22:14:11.192Z,4.60
2019-03-19T22:16:43.063Z,4.93
2019-03-19T22:19:14.839Z,4.87
2019-03-19T22:21:46.761Z,4.87
2019-03-19T22:24:20.729Z,4.47
2019-03-19T22:26:52.494Z,5.00
2019-03-19T22:29:25.548Z,4.77
2019-03-19T22:31:57.348Z,5.17
2019-03-19T22:34:29.103Z,5.00
2019-03-19T22:37:00.849Z,4.80
2019-03-19T22:39:32.689Z,5.07
2019-03-19T22:42:04.374Z,4.70
2019-03-19T22:44:36.369Z,5.00
2019-03-19T22:47:09.099Z,5.30
2019-03-19T22:49:42.909Z,4.97
2019-03-19T22:52:14.611Z,4.73
2019-03-19T22:54:46.350Z,4.83
2019-03-19T22:57:18.361Z,4.70
2019-03-19T22:59:54.371Z,4.53
2019-03-19T23:02:27.286Z,4.67
2019-03-19T23:04:59.233Z,4.57
2019-03-19T23:07:31.186Z,4.43
2019-03-19T23:10:03.367Z,4.63
2019-03-19T23:12:38.037Z,5.13
2019-03-19T23:15:13.260Z,4.83
2019-03-19T23:17:45.049Z,4.67
2019-03-19T23:20:17.299Z,4.80
2019-03-19T23:22:49.108Z,4.37
2019-03-19T23:25:22.663Z,4.67
2019-03-19T23:27:56.315Z,5.27
2019-03-19T23:30:31.068Z,4.70
2019-03-19T23:33:08.886Z,5.30
2019-03-19T23:35:40.861Z,4.30
2019-03-19T23:38:12.585Z,4.83
2019-03-19T23:40:46.702Z,4.50
2019-03-19T23:43:19.016Z,4.70
2019-03-19T23:45:50.828Z,4.73
2019-03-19T23:48:26.818Z,4.43
2019-03-19T23:50:59.386Z,4.30
2019-03-19T23:53:32.610Z,4.13
2019-03-19T23:56:04.620Z,4.40
2019-03-19T23:58:36.630Z,4.63
